DW8108 Weather Reports


Display with metric or nautical units.
time (UTC)temp
F
wind
direction
speed
MPH
gust
MPH
rain 1hr
in
rain 24hr
in
rain mn
in
humidity
%
barometer
mb
20240621074543 67 0.0 3.0 0.00 0.00 0.00 95 1021.9
20240621073042 67 0.0 4.0 0.00 0.00 0.00 95 1022.0
20240621071548 66 0.0 0.0 0.00 0.00 0.00 94 1022.0
20240621070044 66 0.0 0.0 0.00 0.00 0.00 94 1022.0
20240621064544 66 0.0 0.0 0.00 0.00 0.00 93 1021.9
20240621063045 66 0.0 0.0 0.00 0.00 0.00 93 1021.9
20240621061536 66 0.0 0.0 0.00 0.00 0.00 93 1022.1
20240621060034 67 0.0 0.0 0.00 0.00 0.00 93 1022.1
20240621054535 67 0.0 0.0 0.00 0.00 0.00 93 1022.1
20240621053038 67 0.0 0.0 0.00 0.00 0.00 93 1022.1
20240621051546 67 0.0 0.0 0.00 0.00 0.00 93 1022.3
20240621050032 67 0.0 1.0 0.00 0.00 0.00 93 1022.4
20240621044527 68 0.0 2.0 0.00 0.00 0.00 93 1022.6
20240621043026 68 0.0 1.0 0.00 0.00 0.00 93 1022.7
20240621041526 68 0.0 2.0 0.00 0.00 0.00 93 1022.6
20240621040033 68 0.0 3.0 0.00 0.00 0.00 93 1022.7
20240621034535 68 0.0 5.0 0.00 0.00 0.00 92 1022.7
20240621033021 69 0.0 6.0 0.00 0.00 0.00 92 1022.6
20240621031529 69 0.0 7.0 0.00 0.00 0.00 92 1022.5
20240621030020 69 0.0 6.0 0.00 0.00 0.00 91 1022.6
20240621024536 69 0.0 7.0 0.00 0.00 0.00 91 1022.4
20240621023036 70 0.0 5.0 0.00 0.00 0.00 91 1022.3
20240621021527 70 0.0 10.0 0.00 0.00 0.00 90 1022.4
20240621020027 71 0.0 11.0 0.00 0.00 0.00 89 1022.5
20240621014517 72 0.0 12.0 0.00 0.00 0.00 86 1022.2
20240621013016 73 0.0 11.0 0.00 0.00 0.00 84 1022.2
20240621011515 75 0.0 8.0 0.00 0.00 0.00 81 1021.9
20240621010014 77 0.0 8.0 0.00 0.00 0.00 78 1021.8
20240621004516 80 0.0 8.0 0.00 0.00 0.00 76 1021.6
20240621003014 81 0.0 7.0 0.00 0.00 0.00 75 1021.5
20240621001512 82 0.0 7.0 0.00 0.00 0.00 74 1021.3
20240621000014 84 0.0 8.0 0.00 0.00 0.00 72 1021.3
20240620234512 85 0.0 9.0 0.00 0.00 0.00 69 1021.3
20240620233011 87 0.0 9.0 0.00 0.00 0.00 67 1021.2
20240620231511 89 0.0 7.0 0.00 0.00 0.00 67 1020.9
20240620230010 90 0.0 10.0 0.00 0.00 0.00 65 1020.8
20240620224509 92 0.0 10.0 0.00 0.00 0.00 62 1020.9
20240620223009 93 0.0 8.0 0.00 0.00 0.00 57 1020.9
20240620221508 94 0.0 5.0 0.00 0.00 0.00 55 1021.0
20240620220008 94 0.0 7.0 0.00 0.00 0.00 54 1021.1
20240620214510 93 0.0 6.0 0.00 0.00 0.00 57 1021.2
20240620213009 93 0.0 3.0 0.00 0.00 0.00 61 1021.2
20240620211503 92 0.0 4.0 0.00 0.00 0.00 60 1021.3
20240620210002 93 0.0 4.0 0.00 0.00 0.00 59 1021.3
20240620204600 93 0.0 3.0 0.00 0.00 0.00 55 1021.5
20240620203105 94 0.0 5.0 0.00 0.00 0.00 60 1021.7
20240620201556 94 0.0 5.0 0.00 0.00 0.00 54 1021.7
20240620200056 93 0.0 3.0 0.00 0.00 0.00 55 1021.8
20240620194555 91 0.0 4.0 0.00 0.00 0.00 60 1021.9
20240620193059 90 0.0 5.0 0.00 0.00 0.00 65 1022.1
20240620191609 89 0.0 4.0 0.00 0.00 0.00 62 1022.4
20240620190053 89 0.0 2.0 0.00 0.00 0.00 65 1022.5
20240620184552 91 0.0 3.0 0.00 0.00 0.00 63 1022.6
20240620183052 93 0.0 2.0 0.00 0.00 0.00 59 1022.6
20240620181550 93 0.0 4.0 0.00 0.00 0.00 56 1022.7
20240620180049 93 0.0 7.0 0.00 0.00 0.00 52 1022.8
20240620174550 93 0.0 6.0 0.00 0.00 0.00 53 1022.9
20240620173100 92 0.0 5.0 0.00 0.00 0.00 57 1023.1
20240620171544 92 0.0 7.0 0.00 0.00 0.00 56 1023.2
20240620170042 91 0.0 7.0 0.00 0.00 0.00 60 1023.2
20240620164542 91 0.0 5.0 0.00 0.00 0.00 60 1023.4
20240620163039 90 0.0 6.0 0.00 0.00 0.00 62 1023.5
20240620161535 89 0.0 7.0 0.00 0.00 0.00 63 1023.6
20240620160032 88 0.0 6.0 0.00 0.00 0.00 64 1023.7
20240620154532 89 0.0 6.0 0.00 0.00 0.00 68 1023.7
20240620153027 88 0.0 2.0 0.00 0.00 0.00 71 1023.7
20240620151535 86 0.0 5.0 0.00 0.00 0.00 71 1023.7
20240620150024 85 0.0 5.0 0.00 0.00 0.00 72 1023.8
20240620144519 84 0.0 6.0 0.00 0.00 0.00 71 1023.8
20240620143017 84 0.0 5.0 0.00 0.00 0.00 74 1023.8
20240620141512 83 0.0 6.0 0.00 0.00 0.00 77 1023.7
20240620140009 82 0.0 4.0 0.00 0.00 0.00 79 1023.6
20240620134506 80 0.0 4.0 0.00 0.00 0.00 83 1023.7
20240620133002 78 0.0 0.0 0.00 0.00 0.00 89 1023.7
20240620131558 76 0.0 4.0 0.00 0.00 0.00 93 1023.8
20240620130056 75 0.0 4.0 0.00 0.00 0.00 95 1023.7
20240620124556 74 0.0 4.0 0.00 0.00 0.00 96 1023.6
20240620123054 73 0.0 0.0 0.00 0.00 0.00 96 1023.5
20240620121555 72 0.0 0.0 0.00 0.00 0.00 96 1023.4
20240620120107 72 0.0 0.0 0.00 0.00 0.00 96 1023.3
20240620114548 71 0.0 0.0 0.00 0.00 0.00 96 1023.3
20240620113048 70 0.0 0.0 0.00 0.00 0.00 95 1023.1
20240620111551 69 0.0 0.0 0.00 0.00 0.00 95 1023.0
20240620110045 70 0.0 0.0 0.00 0.00 0.00 95 1022.9
20240620104540 70 0.0 0.0 0.00 0.00 0.00 95 1022.8
20240620103039 70 0.0 1.0 0.00 0.00 0.00 95 1022.6
20240620101546 71 0.0 3.0 0.00 0.00 0.00 95 1022.5
20240620100036 71 0.0 0.0 0.00 0.00 0.00 95 1022.5
20240620094541 71 0.0 0.0 0.00 0.00 0.00 95 1022.4
20240620093038 71 0.0 0.0 0.00 0.00 0.00 94 1022.2
20240620091533 71 0.0 0.0 0.00 0.00 0.00 94 1022.2
20240620090031 71 0.0 0.0 0.00 0.00 0.00 94 1022.1
20240620084530 71 0.0 0.0 0.00 0.00 0.00 94 1022.1
20240620083033 72 0.0 2.0 0.00 0.00 0.00 94 1022.0
20240620081535 72 0.0 2.0 0.00 0.00 0.00 94 1022.0
20240620080026 72 0.0 3.0 0.00 0.00 0.00 94 1022.0